createdAt,value
2022-10-09T00:03:17.209Z,100928.94
2022-10-09T00:08:20.304Z,100936.94
2022-10-09T00:13:24.813Z,100937.69
2022-10-09T00:18:27.950Z,100944.00
2022-10-09T00:23:31.086Z,100943.84
2022-10-09T00:28:38.717Z,100956.03
2022-10-09T00:33:42.264Z,100948.34
2022-10-09T00:38:45.555Z,100949.34
2022-10-09T00:43:50.942Z,100949.28
2022-10-09T00:48:58.268Z,100943.13
2022-10-09T00:54:02.214Z,100945.63
2022-10-09T00:59:07.073Z,100953.34
2022-10-09T01:04:10.464Z,100955.38
2022-10-09T01:09:15.745Z,100961.41
2022-10-09T01:14:24.990Z,100974.50
2022-10-09T01:19:43.537Z,100976.41
2022-10-09T01:24:49.324Z,100979.16
2022-10-09T01:29:56.401Z,100988.72
2022-10-09T01:35:00.303Z,100988.03
2022-10-09T01:40:04.532Z,100993.25
2022-10-09T01:45:09.659Z,100997.53
2022-10-09T01:50:16.925Z,100999.31
2022-10-09T01:55:25.129Z,101004.63
2022-10-09T02:00:32.135Z,101010.06
2022-10-09T02:05:35.335Z,101010.09
2022-10-09T02:10:39.071Z,101022.22
2022-10-09T02:15:48.522Z,101026.59
2022-10-09T02:20:53.004Z,101031.00
2022-10-09T02:25:56.175Z,101025.81
2022-10-09T02:31:04.987Z,101034.63
2022-10-09T02:36:08.030Z,101045.97
2022-10-09T02:41:11.075Z,101050.34
2022-10-09T02:46:15.965Z,101057.50
2022-10-09T02:51:19.055Z,101062.66
2022-10-09T02:56:22.543Z,101074.91
2022-10-09T03:01:27.098Z,101076.72
2022-10-09T03:06:30.687Z,101093.25
2022-10-09T03:11:33.915Z,101095.94
2022-10-09T03:16:38.334Z,101102.03
2022-10-09T03:21:41.331Z,101099.50
2022-10-09T03:26:44.353Z,101107.28
2022-10-09T03:31:53.110Z,101115.19
2022-10-09T03:36:56.424Z,101112.66
2022-10-09T03:41:59.473Z,101109.16
2022-10-09T03:47:03.893Z,101107.41
2022-10-09T03:52:06.953Z,101126.56
2022-10-09T03:57:09.949Z,101129.16
2022-10-09T04:02:14.346Z,101135.25
2022-10-09T04:07:17.373Z,101137.84
2022-10-09T04:12:20.369Z,101144.75
2022-10-09T04:17:24.815Z,101146.53
2022-10-09T04:22:28.009Z,101148.25
2022-10-09T04:27:31.122Z,101152.63
2022-10-09T04:32:35.581Z,101159.56
2022-10-09T04:37:38.655Z,101163.06
2022-10-09T04:42:41.671Z,101171.75
2022-10-09T04:47:46.050Z,101183.91
2022-10-09T04:52:49.372Z,101190.81
2022-10-09T04:57:52.566Z,101189.88
2022-10-09T05:02:56.992Z,101205.59
2022-10-09T05:08:00.018Z,101202.97
2022-10-09T05:13:03.045Z,101202.97
2022-10-09T05:18:07.552Z,101217.72
2022-10-09T05:23:10.591Z,101240.28
2022-10-09T05:28:13.790Z,101248.09
2022-10-09T05:33:18.249Z,101254.16
2022-10-09T05:38:21.875Z,101249.81
2022-10-09T05:43:25.191Z,101259.34
2022-10-09T05:48:29.997Z,101267.97
2022-10-09T05:53:33.311Z,101274.91
2022-10-09T05:58:36.311Z,101281.88
2022-10-09T06:03:40.761Z,101291.41
2022-10-09T06:08:43.842Z,101293.13
2022-10-09T06:13:47.711Z,101303.53
2022-10-09T06:18:53.470Z,101311.31
2022-10-09T06:23:57.549Z,101316.53
2022-10-09T06:29:01.530Z,101319.97
2022-10-09T06:34:06.177Z,101327.84
2022-10-09T06:39:09.365Z,101346.06
2022-10-09T06:44:16.678Z,101359.09
2022-10-09T06:49:21.419Z,101361.66
2022-10-09T06:54:24.405Z,101359.91
2022-10-09T06:59:27.451Z,101371.19
2022-10-09T07:04:32.003Z,101385.91
2022-10-09T07:09:35.093Z,101388.50
2022-10-09T07:14:38.109Z,101398.94
2022-10-09T07:19:42.509Z,101400.66
2022-10-09T07:24:45.606Z,101402.41
2022-10-09T07:29:48.720Z,101409.34
2022-10-09T07:34:53.119Z,101409.38
2022-10-09T07:39:56.249Z,101426.75
2022-10-09T07:44:59.354Z,101431.94
2022-10-09T07:50:03.829Z,101433.66
2022-10-09T07:55:07.189Z,101439.72
2022-10-09T08:00:10.974Z,101436.22
2022-10-09T08:05:15.685Z,101451.91
2022-10-09T08:10:18.883Z,101448.41
2022-10-09T08:15:21.939Z,101457.97
2022-10-09T08:20:26.439Z,101470.09
2022-10-09T08:25:29.795Z,101474.47
2022-10-09T08:30:32.870Z,101469.25
2022-10-09T08:35:37.240Z,101486.56
2022-10-09T08:40:43.274Z,101483.13
2022-10-09T08:45:48.107Z,101501.34
2022-10-09T08:50:54.332Z,101503.97
2022-10-09T08:55:58.523Z,101512.66
2022-10-09T09:01:03.943Z,101513.50
2022-10-09T09:06:10.768Z,101509.09
2022-10-09T09:11:21.587Z,101513.44
2022-10-09T09:16:29.641Z,101509.09
2022-10-09T09:21:38.350Z,101505.63
2022-10-09T09:26:44.069Z,101509.06
2022-10-09T09:31:47.334Z,101515.97
2022-10-09T09:36:54.081Z,101526.47
2022-10-09T09:42:01.253Z,101525.56
2022-10-09T09:47:04.448Z,101526.41
2022-10-09T09:52:10.056Z,101535.97
2022-10-09T09:57:17.127Z,101538.59
2022-10-09T10:02:23.846Z,101540.38
2022-10-09T10:07:32.745Z,101546.41
2022-10-09T10:12:40.891Z,101558.59
2022-10-09T10:17:43.967Z,101564.72
2022-10-09T10:22:54.474Z,101551.66
2022-10-09T10:27:59.817Z,101557.75
2022-10-09T10:33:04.820Z,101558.59
2022-10-09T10:38:15.796Z,101569.84
2022-10-09T10:43:26.547Z,101575.06
2022-10-09T10:48:31.069Z,101567.22
2022-10-09T10:53:42.560Z,101575.06
2022-10-09T10:58:52.288Z,101584.63
2022-10-09T11:04:05.125Z,101598.59
2022-10-09T11:09:15.134Z,101587.25
2022-10-09T11:14:27.338Z,101591.56
2022-10-09T11:19:51.142Z,101593.34
2022-10-09T11:25:02.734Z,101588.09
2022-10-09T11:30:07.419Z,101582.88
2022-10-09T11:35:16.325Z,101585.56
2022-10-09T11:40:23.931Z,101587.28
2022-10-09T11:45:30.350Z,101588.16
2022-10-09T11:50:43.493Z,101586.41
2022-10-09T11:55:48.517Z,101582.91
2022-10-09T12:00:54.030Z,101582.03
2022-10-09T12:06:04.306Z,101588.03
2022-10-09T12:11:13.597Z,101585.44
2022-10-09T12:16:34.392Z,101590.63
2022-10-09T12:21:39.170Z,101591.50
2022-10-09T12:26:43.884Z,101581.00
2022-10-09T12:31:47.641Z,101580.22
2022-10-09T12:36:50.765Z,101574.13
2022-10-09T12:41:58.440Z,101573.16
2022-10-09T12:47:03.674Z,101572.78
2022-10-09T12:52:14.777Z,101582.50
2022-10-09T12:57:21.813Z,101581.69
2022-10-09T13:02:27.340Z,101584.09
2022-10-09T13:07:32.513Z,101578.03
2022-10-09T13:12:37.348Z,101581.22
2022-10-09T13:17:41.446Z,101576.38
2022-10-09T13:22:53.835Z,101576.13
2022-10-09T13:27:58.295Z,101584.19
2022-10-09T13:33:01.319Z,101580.97
2022-10-09T13:38:04.394Z,101579.53
2022-10-09T13:43:09.037Z,101570.69
2022-10-09T13:48:12.073Z,101569.09
2022-10-09T13:53:15.185Z,101575.13
2022-10-09T13:58:19.638Z,101567.38
2022-10-09T14:03:22.789Z,101566.69
2022-10-09T14:08:25.873Z,101567.59
2022-10-09T14:13:30.779Z,101570.19
2022-10-09T14:18:33.980Z,101575.44
2022-10-09T14:23:37.089Z,101568.50
2022-10-09T14:28:41.857Z,101568.66
2022-10-09T14:33:45.067Z,101566.06
2022-10-09T14:38:48.681Z,101570.47
2022-10-09T14:43:56.835Z,101567.03
2022-10-09T14:48:59.907Z,101563.59
2022-10-09T14:54:03.278Z,101573.13
2022-10-09T14:59:07.709Z,101571.41
2022-10-09T15:04:10.928Z,101581.91
2022-10-09T15:09:14.027Z,101580.16
2022-10-09T15:14:18.463Z,101581.91
2022-10-09T15:19:21.511Z,101590.59
2022-10-09T15:24:24.558Z,101593.22
2022-10-09T15:29:29.082Z,101585.44
2022-10-09T15:34:32.192Z,101591.53
2022-10-09T15:39:35.318Z,101587.22
2022-10-09T15:44:42.502Z,101593.34
2022-10-09T15:49:46.572Z,101602.94
2022-10-09T15:54:51.146Z,101610.78
2022-10-09T15:59:55.584Z,101607.31
2022-10-09T16:04:58.657Z,101605.59
2022-10-09T16:10:01.736Z,101613.47
2022-10-09T16:15:06.631Z,101611.75
2022-10-09T16:20:10.216Z,101624.75
2022-10-09T16:25:13.288Z,101629.97
2022-10-09T16:30:17.915Z,101633.47
2022-10-09T16:35:21.114Z,101634.31
2022-10-09T16:40:37.479Z,101641.28
2022-10-09T16:45:48.764Z,101636.03
2022-10-09T16:50:51.761Z,101643.84
2022-10-09T16:55:54.941Z,101642.09
2022-10-09T17:01:07.398Z,101640.34
2022-10-09T17:06:14.056Z,101655.94
2022-10-09T17:11:17.790Z,101659.38
2022-10-09T17:16:22.858Z,101653.28
2022-10-09T17:21:29.302Z,101664.53
2022-10-09T17:26:36.552Z,101661.91
2022-10-09T17:31:41.130Z,101667.09
2022-10-09T17:36:45.125Z,101670.53
2022-10-09T17:41:49.040Z,101676.63
2022-10-09T17:46:53.487Z,101679.19
2022-10-09T17:51:56.531Z,101678.34
2022-10-09T17:57:00.340Z,101680.88
2022-10-09T18:02:05.401Z,101689.44
2022-10-09T18:07:08.500Z,101690.31
2022-10-09T18:12:11.631Z,101693.81
2022-10-09T18:17:16.050Z,101681.69
2022-10-09T18:22:19.154Z,101686.00
2022-10-09T18:27:23.954Z,101686.78
2022-10-09T18:32:28.866Z,101694.53
2022-10-09T18:37:32.008Z,101696.22
2022-10-09T18:42:35.803Z,101694.44
2022-10-09T18:47:40.626Z,101691.75
2022-10-09T18:52:44.592Z,101704.75
2022-10-09T18:57:48.423Z,101710.66
2022-10-09T19:02:52.877Z,101718.47
2022-10-09T19:07:56.208Z,101725.25
2022-10-09T19:13:01.094Z,101727.06
2022-10-09T19:18:05.632Z,101735.84
2022-10-09T19:23:09.507Z,101727.16
2022-10-09T19:28:12.684Z,101723.63
2022-10-09T19:33:17.704Z,101734.81
2022-10-09T19:38:21.162Z,101733.03
2022-10-09T19:43:25.555Z,101726.94
2022-10-09T19:48:29.986Z,101739.91
2022-10-09T19:53:33.016Z,101745.03
2022-10-09T19:58:36.059Z,101739.00
2022-10-09T20:03:41.456Z,101739.84
2022-10-09T20:08:45.323Z,101738.06
2022-10-09T20:13:52.107Z,101744.06
2022-10-09T20:18:59.657Z,101743.13
2022-10-09T20:24:02.881Z,101753.44
2022-10-09T20:29:07.231Z,101746.50
2022-10-09T20:34:11.824Z,101754.16
2022-10-09T20:39:15.350Z,101752.31
2022-10-09T20:44:18.546Z,101753.16
2022-10-09T20:49:23.152Z,101758.34
2022-10-09T20:54:26.647Z,101757.44
2022-10-09T20:59:29.837Z,101751.41
2022-10-09T21:04:34.383Z,101754.78
2022-10-09T21:09:37.848Z,101758.97
2022-10-09T21:14:40.965Z,101758.97
2022-10-09T21:19:45.495Z,101755.53
2022-10-09T21:24:48.666Z,101749.34
2022-10-09T21:29:51.823Z,101758.75
2022-10-09T21:34:56.406Z,101753.63
2022-10-09T21:39:59.497Z,101754.50
2022-10-09T21:45:02.724Z,101748.41
2022-10-09T21:50:07.757Z,101743.13
2022-10-09T21:55:10.914Z,101743.72
2022-10-09T22:00:14.628Z,101763.53
2022-10-09T22:05:19.239Z,101754.94
2022-10-09T22:10:22.347Z,101753.09
2022-10-09T22:15:25.471Z,101759.75
2022-10-09T22:20:29.919Z,101762.44
2022-10-09T22:25:33.040Z,101765.84
2022-10-09T22:30:36.349Z,101764.50
2022-10-09T22:35:42.012Z,101767.84
2022-10-09T22:40:47.212Z,101769.53
2022-10-09T22:45:50.498Z,101767.56
2022-10-09T22:50:54.901Z,101777.81
2022-10-09T22:55:58.184Z,101780.47
2022-10-09T23:01:03.266Z,101775.19
2022-10-09T23:06:09.237Z,101781.13
2022-10-09T23:11:12.778Z,101776.53
2022-10-09T23:16:16.118Z,101773.13
2022-10-09T23:21:21.752Z,101769.66
2022-10-09T23:26:25.846Z,101753.16
2022-10-09T23:31:29.508Z,101767.75
2022-10-09T23:36:34.447Z,101760.69
2022-10-09T23:41:38.836Z,101752.09
2022-10-09T23:46:42.213Z,101764.97
2022-10-09T23:51:47.859Z,101759.59
2022-10-09T23:56:50.922Z,101758.81
